sensor_id;sensor_type;location;lat;lon;timestamp;pressure;altitude;pressure_sealevel;temperature;humidity
24160;BME280;62385;41.594;23.808;2023-01-29T00:01:42;95394.94;;;3.15;73.31
24160;BME280;62385;41.594;23.808;2023-01-29T00:04:08;95400.13;;;3.06;75.29
24160;BME280;62385;41.594;23.808;2023-01-29T00:06:33;95390.47;;;2.86;75.55
24160;BME280;62385;41.594;23.808;2023-01-29T00:08:59;95399.06;;;2.76;74.87
24160;BME280;62385;41.594;23.808;2023-01-29T00:11:25;95399.13;;;2.86;76.23
24160;BME280;62385;41.594;23.808;2023-01-29T00:13:52;95391.53;;;3.04;75.33
24160;BME280;62385;41.594;23.808;2023-01-29T00:16:17;95398.00;;;3.00;77.67
24160;BME280;62385;41.594;23.808;2023-01-29T00:18:43;95400.63;;;3.00;77.50
24160;BME280;62385;41.594;23.808;2023-01-29T00:21:17;95395.19;;;2.92;76.19
24160;BME280;62385;41.594;23.808;2023-01-29T00:23:43;95405.59;;;3.03;76.32
24160;BME280;62385;41.594;23.808;2023-01-29T00:26:09;95401.91;;;3.05;76.14
24160;BME280;62385;41.594;23.808;2023-01-29T00:28:37;95406.06;;;3.08;75.81
24160;BME280;62385;41.594;23.808;2023-01-29T00:31:24;95413.47;;;3.03;75.98
24160;BME280;62385;41.594;23.808;2023-01-29T00:33:51;95411.84;;;3.02;77.18
24160;BME280;62385;41.594;23.808;2023-01-29T00:36:18;95410.63;;;2.74;76.98
24160;BME280;62385;41.594;23.808;2023-01-29T00:38:44;95410.78;;;2.61;77.67
24160;BME280;62385;41.594;23.808;2023-01-29T00:41:26;95408.16;;;2.61;76.91
24160;BME280;62385;41.594;23.808;2023-01-29T00:44:11;95408.38;;;2.69;78.42
24160;BME280;62385;41.594;23.808;2023-01-29T00:46:56;95405.06;;;2.67;77.55
24160;BME280;62385;41.594;23.808;2023-01-29T00:49:22;95396.94;;;2.70;76.90
24160;BME280;62385;41.594;23.808;2023-01-29T00:51:48;95402.34;;;2.58;78.09
24160;BME280;62385;41.594;23.808;2023-01-29T00:54:33;95403.56;;;2.54;78.64
24160;BME280;62385;41.594;23.808;2023-01-29T00:56:59;95404.66;;;2.51;78.69
24160;BME280;62385;41.594;23.808;2023-01-29T00:59:25;95401.31;;;2.49;79.51
24160;BME280;62385;41.594;23.808;2023-01-29T01:01:50;95407.31;;;2.40;79.69
24160;BME280;62385;41.594;23.808;2023-01-29T01:04:35;95406.53;;;2.49;78.16
24160;BME280;62385;41.594;23.808;2023-01-29T01:07:01;95409.53;;;2.56;78.71
24160;BME280;62385;41.594;23.808;2023-01-29T01:09:26;95408.72;;;2.33;78.25
24160;BME280;62385;41.594;23.808;2023-01-29T01:12:11;95416.00;;;2.29;78.34
24160;BME280;62385;41.594;23.808;2023-01-29T01:14:36;95404.13;;;2.25;77.38
24160;BME280;62385;41.594;23.808;2023-01-29T01:17:02;95411.28;;;2.12;79.62
24160;BME280;62385;41.594;23.808;2023-01-29T01:19:27;95413.31;;;1.86;81.02
24160;BME280;62385;41.594;23.808;2023-01-29T01:21:53;95413.34;;;1.75;81.81
24160;BME280;62385;41.594;23.808;2023-01-29T01:24:18;95423.31;;;1.70;82.37
24160;BME280;62385;41.594;23.808;2023-01-29T01:26:45;95425.94;;;1.59;82.47
24160;BME280;62385;41.594;23.808;2023-01-29T01:29:11;95418.44;;;1.66;82.50
24160;BME280;62385;41.594;23.808;2023-01-29T01:31:37;95415.72;;;1.67;82.47
24160;BME280;62385;41.594;23.808;2023-01-29T01:34:02;95420.97;;;1.56;82.81
24160;BME280;62385;41.594;23.808;2023-01-29T01:36:28;95423.69;;;1.55;82.23
24160;BME280;62385;41.594;23.808;2023-01-29T01:38:54;95421.41;;;1.50;82.97
24160;BME280;62385;41.594;23.808;2023-01-29T01:41:21;95411.78;;;1.39;82.67
24160;BME280;62385;41.594;23.808;2023-01-29T01:43:56;95425.06;;;1.25;83.34
24160;BME280;62385;41.594;23.808;2023-01-29T01:46:23;95423.19;;;1.27;83.65
24160;BME280;62385;41.594;23.808;2023-01-29T01:48:56;95418.16;;;1.24;83.13
24160;BME280;62385;41.594;23.808;2023-01-29T01:51:25;95432.16;;;1.12;83.24
24160;BME280;62385;41.594;23.808;2023-01-29T01:54:15;95426.00;;;1.24;82.86
24160;BME280;62385;41.594;23.808;2023-01-29T01:56:48;95428.16;;;1.30;83.01
24160;BME280;62385;41.594;23.808;2023-01-29T01:59:21;95429.19;;;1.17;83.05
24160;BME280;62385;41.594;23.808;2023-01-29T02:01:49;95436.69;;;1.21;83.00
24160;BME280;62385;41.594;23.808;2023-01-29T02:04:21;95435.28;;;1.17;83.04
24160;BME280;62385;41.594;23.808;2023-01-29T02:07:09;95432.47;;;1.31;81.88
24160;BME280;62385;41.594;23.808;2023-01-29T02:10:08;95427.88;;;1.57;83.42
24160;BME280;62385;41.594;23.808;2023-01-29T02:12:36;95429.59;;;1.46;82.63
24160;BME280;62385;41.594;23.808;2023-01-29T02:15:03;95433.97;;;1.23;82.50
24160;BME280;62385;41.594;23.808;2023-01-29T02:17:29;95438.00;;;1.16;83.39
24160;BME280;62385;41.594;23.808;2023-01-29T02:25:54;95430.38;;;1.13;83.41
24160;BME280;62385;41.594;23.808;2023-01-29T02:31:10;95435.13;;;1.08;84.01
24160;BME280;62385;41.594;23.808;2023-01-29T02:36:26;95441.53;;;1.04;83.67
24160;BME280;62385;41.594;23.808;2023-01-29T02:39:26;95447.56;;;0.93;83.90
24160;BME280;62385;41.594;23.808;2023-01-29T02:42:00;95444.94;;;0.93;84.23
24160;BME280;62385;41.594;23.808;2023-01-29T02:44:37;95451.94;;;0.92;84.46
24160;BME280;62385;41.594;23.808;2023-01-29T02:52:57;95454.31;;;0.96;83.86
24160;BME280;62385;41.594;23.808;2023-01-29T02:55:40;95447.72;;;0.79;83.77
24160;BME280;62385;41.594;23.808;2023-01-29T02:58:12;95455.28;;;0.95;83.86
24160;BME280;62385;41.594;23.808;2023-01-29T03:00:44;95443.06;;;0.95;83.47
24160;BME280;62385;41.594;23.808;2023-01-29T03:03:24;95444.50;;;0.99;83.26
24160;BME280;62385;41.594;23.808;2023-01-29T03:08:37;95457.25;;;0.80;83.76
24160;BME280;62385;41.594;23.808;2023-01-29T03:11:10;95454.88;;;0.77;83.55
24160;BME280;62385;41.594;23.808;2023-01-29T03:16:28;95461.78;;;0.89;83.97
24160;BME280;62385;41.594;23.808;2023-01-29T03:19:01;95466.38;;;0.74;84.01
24160;BME280;62385;41.594;23.808;2023-01-29T03:21:35;95460.25;;;0.86;84.49
24160;BME280;62385;41.594;23.808;2023-01-29T03:24:47;95476.84;;;0.74;83.97
24160;BME280;62385;41.594;23.808;2023-01-29T03:27:55;95473.75;;;0.80;84.87
24160;BME280;62385;41.594;23.808;2023-01-29T03:30:53;95465.94;;;0.91;84.00
24160;BME280;62385;41.594;23.808;2023-01-29T03:33:47;95462.91;;;0.98;84.10
24160;BME280;62385;41.594;23.808;2023-01-29T03:36:22;95471.53;;;1.22;83.16
24160;BME280;62385;41.594;23.808;2023-01-29T03:38:51;95474.28;;;1.31;83.25
24160;BME280;62385;41.594;23.808;2023-01-29T03:41:39;95478.84;;;1.52;83.41
24160;BME280;62385;41.594;23.808;2023-01-29T03:47:11;95466.72;;;1.51;82.51
24160;BME280;62385;41.594;23.808;2023-01-29T03:52:50;95481.19;;;1.32;83.62
24160;BME280;62385;41.594;23.808;2023-01-29T03:55:32;95483.44;;;1.37;83.43
24160;BME280;62385;41.594;23.808;2023-01-29T03:58:22;95479.28;;;1.34;83.83
24160;BME280;62385;41.594;23.808;2023-01-29T04:01:01;95478.25;;;1.48;83.34
24160;BME280;62385;41.594;23.808;2023-01-29T04:03:33;95491.44;;;1.47;83.72
24160;BME280;62385;41.594;23.808;2023-01-29T04:06:12;95480.91;;;1.24;83.70
24160;BME280;62385;41.594;23.808;2023-01-29T04:09:08;95492.59;;;1.31;83.31
24160;BME280;62385;41.594;23.808;2023-01-29T04:11:44;95483.09;;;1.42;83.22
24160;BME280;62385;41.594;23.808;2023-01-29T04:14:12;95491.28;;;1.37;83.40
24160;BME280;62385;41.594;23.808;2023-01-29T04:16:41;95485.59;;;1.32;82.95
24160;BME280;62385;41.594;23.808;2023-01-29T04:19:16;95484.88;;;1.30;82.86
24160;BME280;62385;41.594;23.808;2023-01-29T04:21:43;95492.38;;;1.34;83.27
24160;BME280;62385;41.594;23.808;2023-01-29T04:24:11;95497.50;;;1.36;83.21
24160;BME280;62385;41.594;23.808;2023-01-29T04:35:30;95498.84;;;1.18;83.76
24160;BME280;62385;41.594;23.808;2023-01-29T04:44:07;95506.00;;;1.16;84.03
24160;BME280;62385;41.594;23.808;2023-01-29T04:49:59;95507.16;;;1.12;84.06
24160;BME280;62385;41.594;23.808;2023-01-29T04:52:41;95513.09;;;1.14;84.19
24160;BME280;62385;41.594;23.808;2023-01-29T04:55:23;95514.44;;;1.19;84.08
24160;BME280;62385;41.594;23.808;2023-01-29T04:58:06;95517.38;;;1.15;83.69
24160;BME280;62385;41.594;23.808;2023-01-29T05:00:39;95516.66;;;1.13;83.72
24160;BME280;62385;41.594;23.808;2023-01-29T05:03:06;95522.22;;;1.08;83.75
24160;BME280;62385;41.594;23.808;2023-01-29T05:05:38;95524.72;;;1.10;84.20
24160;BME280;62385;41.594;23.808;2023-01-29T05:08:05;95525.22;;;1.15;84.19
24160;BME280;62385;41.594;23.808;2023-01-29T05:10:32;95529.00;;;1.11;83.63
24160;BME280;62385;41.594;23.808;2023-01-29T05:13:02;95528.06;;;1.12;84.09
24160;BME280;62385;41.594;23.808;2023-01-29T05:15:37;95525.34;;;0.89;84.68
24160;BME280;62385;41.594;23.808;2023-01-29T05:18:04;95536.97;;;0.85;84.88
24160;BME280;62385;41.594;23.808;2023-01-29T05:20:35;95522.91;;;0.99;84.74
24160;BME280;62385;41.594;23.808;2023-01-29T05:23:03;95526.19;;;0.90;84.60
24160;BME280;62385;41.594;23.808;2023-01-29T05:25:30;95537.28;;;1.05;84.08
24160;BME280;62385;41.594;23.808;2023-01-29T05:27:57;95535.84;;;1.01;84.03
24160;BME280;62385;41.594;23.808;2023-01-29T05:30:35;95538.81;;;1.20;83.63
24160;BME280;62385;41.594;23.808;2023-01-29T05:33:01;95535.63;;;1.27;83.76
24160;BME280;62385;41.594;23.808;2023-01-29T05:35:27;95536.38;;;1.17;83.70
24160;BME280;62385;41.594;23.808;2023-01-29T05:37:55;95537.13;;;1.19;84.00
24160;BME280;62385;41.594;23.808;2023-01-29T05:40:21;95539.28;;;1.25;83.07
24160;BME280;62385;41.594;23.808;2023-01-29T05:42:49;95542.97;;;1.22;84.05
24160;BME280;62385;41.594;23.808;2023-01-29T05:45:16;95540.59;;;1.19;84.17
24160;BME280;62385;41.594;23.808;2023-01-29T05:47:44;95546.81;;;1.06;84.21
24160;BME280;62385;41.594;23.808;2023-01-29T05:50:10;95548.53;;;1.18;84.33
24160;BME280;62385;41.594;23.808;2023-01-29T05:52:36;95550.84;;;1.33;83.43
24160;BME280;62385;41.594;23.808;2023-01-29T05:55:02;95552.34;;;1.25;83.84
24160;BME280;62385;41.594;23.808;2023-01-29T05:57:28;95552.91;;;1.17;84.19
24160;BME280;62385;41.594;23.808;2023-01-29T05:59:53;95557.09;;;1.20;83.82
24160;BME280;62385;41.594;23.808;2023-01-29T06:02:19;95550.47;;;1.27;83.97
24160;BME280;62385;41.594;23.808;2023-01-29T06:04:45;95560.25;;;1.36;83.62
24160;BME280;62385;41.594;23.808;2023-01-29T06:07:11;95551.00;;;1.43;83.38
24160;BME280;62385;41.594;23.808;2023-01-29T06:09:37;95554.38;;;1.56;82.84
24160;BME280;62385;41.594;23.808;2023-01-29T06:12:03;95566.22;;;1.49;83.13
24160;BME280;62385;41.594;23.808;2023-01-29T06:14:30;95566.03;;;1.52;83.26
24160;BME280;62385;41.594;23.808;2023-01-29T06:16:56;95571.75;;;1.57;83.59
24160;BME280;62385;41.594;23.808;2023-01-29T06:19:21;95580.66;;;1.66;83.24
24160;BME280;62385;41.594;23.808;2023-01-29T06:21:47;95575.25;;;1.80;82.92
24160;BME280;62385;41.594;23.808;2023-01-29T06:24:13;95582.41;;;1.89;81.38
24160;BME280;62385;41.594;23.808;2023-01-29T06:26:39;95585.16;;;1.99;82.46
24160;BME280;62385;41.594;23.808;2023-01-29T06:29:04;95584.44;;;1.97;81.17
24160;BME280;62385;41.594;23.808;2023-01-29T06:31:31;95589.91;;;1.94;81.15
24160;BME280;62385;41.594;23.808;2023-01-29T06:33:57;95590.44;;;1.75;80.97
24160;BME280;62385;41.594;23.808;2023-01-29T06:36:23;95597.47;;;1.74;80.98
24160;BME280;62385;41.594;23.808;2023-01-29T06:38:50;95601.66;;;1.88;80.86
24160;BME280;62385;41.594;23.808;2023-01-29T06:41:18;95603.38;;;2.11;80.50
24160;BME280;62385;41.594;23.808;2023-01-29T06:43:47;95604.25;;;2.23;80.19
24160;BME280;62385;41.594;23.808;2023-01-29T06:46:12;95606.38;;;2.29;79.18
24160;BME280;62385;41.594;23.808;2023-01-29T06:48:38;95597.81;;;2.38;79.28
24160;BME280;62385;41.594;23.808;2023-01-29T06:51:08;95600.31;;;2.40;78.04
24160;BME280;62385;41.594;23.808;2023-01-29T06:53:35;95603.19;;;2.48;79.09
24160;BME280;62385;41.594;23.808;2023-01-29T06:56:01;95601.50;;;2.47;78.59
24160;BME280;62385;41.594;23.808;2023-01-29T06:58:27;95599.81;;;2.57;76.82
24160;BME280;62385;41.594;23.808;2023-01-29T07:00:53;95605.78;;;2.59;76.88
24160;BME280;62385;41.594;23.808;2023-01-29T07:03:19;95613.78;;;2.68;76.26
24160;BME280;62385;41.594;23.808;2023-01-29T07:05:51;95609.84;;;2.63;75.37
24160;BME280;62385;41.594;23.808;2023-01-29T07:08:17;95613.91;;;2.67;74.18
24160;BME280;62385;41.594;23.808;2023-01-29T07:10:43;95609.75;;;2.64;73.55
24160;BME280;62385;41.594;23.808;2023-01-29T07:13:09;95609.72;;;2.75;76.36
24160;BME280;62385;41.594;23.808;2023-01-29T07:15:34;95614.50;;;2.82;75.51
24160;BME280;62385;41.594;23.808;2023-01-29T07:18:02;95615.31;;;2.93;75.11
24160;BME280;62385;41.594;23.808;2023-01-29T07:20:32;95616.25;;;2.92;75.04
24160;BME280;62385;41.594;23.808;2023-01-29T07:22:58;95620.41;;;3.06;75.57
24160;BME280;62385;41.594;23.808;2023-01-29T07:25:24;95620.06;;;2.99;75.52
24160;BME280;62385;41.594;23.808;2023-01-29T07:27:50;95624.00;;;3.05;74.58
24160;BME280;62385;41.594;23.808;2023-01-29T07:30:16;95622.69;;;2.88;72.77
24160;BME280;62385;41.594;23.808;2023-01-29T07:32:42;95633.53;;;2.95;73.76
24160;BME280;62385;41.594;23.808;2023-01-29T07:35:08;95628.88;;;3.09;73.57
24160;BME280;62385;41.594;23.808;2023-01-29T07:37:34;95631.94;;;3.25;74.77
24160;BME280;62385;41.594;23.808;2023-01-29T07:39:59;95624.69;;;3.18;73.96
24160;BME280;62385;41.594;23.808;2023-01-29T07:42:25;95633.88;;;2.90;72.71
24160;BME280;62385;41.594;23.808;2023-01-29T07:44:50;95632.06;;;3.13;72.47
24160;BME280;62385;41.594;23.808;2023-01-29T07:47:16;95625.16;;;3.12;72.29
24160;BME280;62385;41.594;23.808;2023-01-29T07:49:41;95630.63;;;3.31;72.06
24160;BME280;62385;41.594;23.808;2023-01-29T07:52:07;95633.19;;;3.42;72.30
24160;BME280;62385;41.594;23.808;2023-01-29T07:54:32;95631.06;;;3.36;72.30
24160;BME280;62385;41.594;23.808;2023-01-29T07:56:58;95634.44;;;3.27;71.82
24160;BME280;62385;41.594;23.808;2023-01-29T07:59:24;95636.16;;;3.49;71.65
24160;BME280;62385;41.594;23.808;2023-01-29T08:01:50;95639.50;;;3.40;71.61
24160;BME280;62385;41.594;23.808;2023-01-29T08:04:15;95638.22;;;3.34;71.47
24160;BME280;62385;41.594;23.808;2023-01-29T08:06:41;95650.47;;;3.45;71.98
24160;BME280;62385;41.594;23.808;2023-01-29T08:09:06;95645.06;;;3.68;71.95
24160;BME280;62385;41.594;23.808;2023-01-29T08:11:33;95646.53;;;3.82;69.42
24160;BME280;62385;41.594;23.808;2023-01-29T08:13:58;95644.66;;;4.05;70.80
24160;BME280;62385;41.594;23.808;2023-01-29T08:16:25;95648.91;;;4.06;71.05
24160;BME280;62385;41.594;23.808;2023-01-29T08:18:50;95653.03;;;3.99;71.26
24160;BME280;62385;41.594;23.808;2023-01-29T08:21:16;95644.97;;;4.11;70.97
24160;BME280;62385;41.594;23.808;2023-01-29T08:23:42;95657.22;;;4.22;71.17
24160;BME280;62385;41.594;23.808;2023-01-29T08:26:07;95658.56;;;4.16;67.44
24160;BME280;62385;41.594;23.808;2023-01-29T08:28:33;95652.72;;;4.13;69.78
24160;BME280;62385;41.594;23.808;2023-01-29T08:31:18;95657.53;;;4.08;68.45
24160;BME280;62385;41.594;23.808;2023-01-29T08:33:47;95655.47;;;4.32;68.84
24160;BME280;62385;41.594;23.808;2023-01-29T08:36:13;95655.47;;;4.32;69.08
24160;BME280;62385;41.594;23.808;2023-01-29T08:38:39;95668.75;;;4.10;69.94
24160;BME280;62385;41.594;23.808;2023-01-29T08:41:05;95662.84;;;4.17;69.94
24160;BME280;62385;41.594;23.808;2023-01-29T08:43:30;95668.97;;;4.48;69.44
24160;BME280;62385;41.594;23.808;2023-01-29T08:45:56;95660.97;;;4.71;70.02
24160;BME280;62385;41.594;23.808;2023-01-29T08:48:22;95664.34;;;4.61;69.00
24160;BME280;62385;41.594;23.808;2023-01-29T08:50:49;95672.44;;;4.49;70.76
24160;BME280;62385;41.594;23.808;2023-01-29T08:53:15;95670.41;;;4.32;68.96
24160;BME280;62385;41.594;23.808;2023-01-29T08:55:40;95676.59;;;3.89;69.93
24160;BME280;62385;41.594;23.808;2023-01-29T08:58:07;95668.13;;;4.06;70.98
24160;BME280;62385;41.594;23.808;2023-01-29T09:00:37;95669.16;;;4.56;68.27
24160;BME280;62385;41.594;23.808;2023-01-29T09:03:03;95676.63;;;3.78;69.49
24160;BME280;62385;41.594;23.808;2023-01-29T09:05:29;95669.22;;;3.83;70.19
24160;BME280;62385;41.594;23.808;2023-01-29T09:07:58;95672.66;;;4.36;69.49
24160;BME280;62385;41.594;23.808;2023-01-29T09:10:25;95672.78;;;4.55;68.00
24160;BME280;62385;41.594;23.808;2023-01-29T09:12:50;95663.69;;;4.18;68.47
24160;BME280;62385;41.594;23.808;2023-01-29T09:15:16;95664.06;;;4.34;67.80
24160;BME280;62385;41.594;23.808;2023-01-29T09:17:42;95664.09;;;4.64;68.25
24160;BME280;62385;41.594;23.808;2023-01-29T09:20:08;95660.69;;;4.74;67.69
24160;BME280;62385;41.594;23.808;2023-01-29T09:22:35;95655.53;;;5.02;67.70
24160;BME280;62385;41.594;23.808;2023-01-29T09:25:01;95655.50;;;4.93;67.12
24160;BME280;62385;41.594;23.808;2023-01-29T09:27:27;95652.25;;;5.10;66.52
24160;BME280;62385;41.594;23.808;2023-01-29T09:29:52;95641.06;;;4.78;66.84
24160;BME280;62385;41.594;23.808;2023-01-29T09:32:18;95641.84;;;4.69;68.11
24160;BME280;62385;41.594;23.808;2023-01-29T09:34:46;95645.41;;;4.98;66.18
24160;BME280;62385;41.594;23.808;2023-01-29T09:37:11;95648.22;;;5.06;65.83
24160;BME280;62385;41.594;23.808;2023-01-29T09:39:37;95640.22;;;4.77;66.83
24160;BME280;62385;41.594;23.808;2023-01-29T09:42:17;95631.81;;;5.33;66.71
24160;BME280;62385;41.594;23.808;2023-01-29T09:45:00;95625.88;;;5.40;65.72
24160;BME280;62385;41.594;23.808;2023-01-29T09:47:27;95623.78;;;5.25;66.38
24160;BME280;62385;41.594;23.808;2023-01-29T09:52:42;95615.53;;;4.99;66.01
24160;BME280;62385;41.594;23.808;2023-01-29T09:55:21;95610.09;;;5.69;64.81
24160;BME280;62385;41.594;23.808;2023-01-29T09:57:52;95616.72;;;4.85;65.15
24160;BME280;62385;41.594;23.808;2023-01-29T10:15:18;95595.72;;;5.92;63.01
24160;BME280;62385;41.594;23.808;2023-01-29T10:26:45;95588.06;;;6.18;64.84
24160;BME280;62385;41.594;23.808;2023-01-29T10:29:15;95578.59;;;6.35;64.60
24160;BME280;62385;41.594;23.808;2023-01-29T10:31:45;95571.66;;;6.34;61.94
24160;BME280;62385;41.594;23.808;2023-01-29T10:34:18;95573.94;;;6.00;64.26
24160;BME280;62385;41.594;23.808;2023-01-29T10:36:48;95572.53;;;6.15;62.64
24160;BME280;62385;41.594;23.808;2023-01-29T10:39:19;95564.75;;;6.23;63.13
24160;BME280;62385;41.594;23.808;2023-01-29T10:49:40;95552.69;;;6.21;63.68
24160;BME280;62385;41.594;23.808;2023-01-29T11:00:40;95544.47;;;6.33;61.30
24160;BME280;62385;41.594;23.808;2023-01-29T11:08:20;95532.34;;;6.50;63.30
24160;BME280;62385;41.594;23.808;2023-01-29T11:10:57;95529.88;;;6.39;62.56
24160;BME280;62385;41.594;23.808;2023-01-29T11:13:30;95526.66;;;5.79;61.90
24160;BME280;62385;41.594;23.808;2023-01-29T11:15:57;95525.41;;;5.83;62.63
24160;BME280;62385;41.594;23.808;2023-01-29T11:18:22;95523.84;;;6.56;61.42
24160;BME280;62385;41.594;23.808;2023-01-29T11:21:01;95515.13;;;6.83;60.42
24160;BME280;62385;41.594;23.808;2023-01-29T11:23:32;95512.63;;;6.54;59.72
24160;BME280;62385;41.594;23.808;2023-01-29T11:25:59;95513.28;;;6.56;61.00
24160;BME280;62385;41.594;23.808;2023-01-29T11:28:45;95512.03;;;6.50;62.68
24160;BME280;62385;41.594;23.808;2023-01-29T11:31:35;95510.09;;;6.80;63.49
24160;BME280;62385;41.594;23.808;2023-01-29T11:34:05;95504.72;;;6.72;62.77
24160;BME280;62385;41.594;23.808;2023-01-29T11:36:37;95496.44;;;6.94;61.26
24160;BME280;62385;41.594;23.808;2023-01-29T11:39:19;95493.75;;;6.49;61.44
24160;BME280;62385;41.594;23.808;2023-01-29T11:42:03;95491.44;;;6.64;60.94
24160;BME280;62385;41.594;23.808;2023-01-29T11:44:33;95493.06;;;6.74;58.44
24160;BME280;62385;41.594;23.808;2023-01-29T11:47:15;95489.56;;;6.19;59.75
24160;BME280;62385;41.594;23.808;2023-01-29T11:49:54;95483.59;;;6.81;61.11
24160;BME280;62385;41.594;23.808;2023-01-29T11:52:26;95483.78;;;7.15;59.77
24160;BME280;62385;41.594;23.808;2023-01-29T11:55:00;95482.44;;;6.66;59.53
24160;BME280;62385;41.594;23.808;2023-01-29T11:57:36;95479.59;;;6.77;60.79
24160;BME280;62385;41.594;23.808;2023-01-29T12:02:45;95473.59;;;6.75;59.21
24160;BME280;62385;41.594;23.808;2023-01-29T12:05:17;95471.72;;;7.30;58.67
24160;BME280;62385;41.594;23.808;2023-01-29T12:07:46;95461.34;;;6.84;58.95
24160;BME280;62385;41.594;23.808;2023-01-29T12:10:35;95464.09;;;7.45;59.14
24160;BME280;62385;41.594;23.808;2023-01-29T12:15:48;95461.78;;;6.79;59.14
24160;BME280;62385;41.594;23.808;2023-01-29T12:18:36;95460.53;;;7.01;57.78
24160;BME280;62385;41.594;23.808;2023-01-29T12:21:15;95456.47;;;7.42;58.01
24160;BME280;62385;41.594;23.808;2023-01-29T12:23:56;95457.91;;;7.19;58.91
24160;BME280;62385;41.594;23.808;2023-01-29T12:26:52;95466.31;;;6.69;59.78
24160;BME280;62385;41.594;23.808;2023-01-29T12:29:36;95465.47;;;7.31;58.46
24160;BME280;62385;41.594;23.808;2023-01-29T12:34:47;95465.81;;;7.01;61.59
24160;BME280;62385;41.594;23.808;2023-01-29T12:37:25;95465.38;;;7.23;61.40
24160;BME280;62385;41.594;23.808;2023-01-29T12:39:53;95471.78;;;7.03;59.02
24160;BME280;62385;41.594;23.808;2023-01-29T12:42:23;95465.22;;;7.42;58.54
24160;BME280;62385;41.594;23.808;2023-01-29T12:45:00;95461.44;;;7.10;61.34
24160;BME280;62385;41.594;23.808;2023-01-29T12:47:40;95460.44;;;6.93;60.71
24160;BME280;62385;41.594;23.808;2023-01-29T12:50:29;95453.28;;;6.85;60.69
24160;BME280;62385;41.594;23.808;2023-01-29T12:53:25;95456.09;;;7.19;59.44
24160;BME280;62385;41.594;23.808;2023-01-29T12:56:22;95454.44;;;7.18;60.01
24160;BME280;62385;41.594;23.808;2023-01-29T12:58:52;95449.22;;;7.26;61.18
24160;BME280;62385;41.594;23.808;2023-01-29T13:01:32;95448.63;;;7.32;60.61
24160;BME280;62385;41.594;23.808;2023-01-29T13:04:06;95440.66;;;7.24;60.45
24160;BME280;62385;41.594;23.808;2023-01-29T13:06:45;95450.75;;;7.11;58.38
24160;BME280;62385;41.594;23.808;2023-01-29T13:09:17;95451.41;;;7.13;60.96
24160;BME280;62385;41.594;23.808;2023-01-29T13:11:52;95435.97;;;6.83;60.94
24160;BME280;62385;41.594;23.808;2023-01-29T13:14:27;95449.50;;;6.88;59.48
24160;BME280;62385;41.594;23.808;2023-01-29T13:17:08;95438.38;;;6.94;60.25
24160;BME280;62385;41.594;23.808;2023-01-29T13:19:39;95440.88;;;6.95;60.28
24160;BME280;62385;41.594;23.808;2023-01-29T13:22:17;95442.84;;;6.39;59.00
24160;BME280;62385;41.594;23.808;2023-01-29T13:24:44;95438.50;;;6.75;58.26
24160;BME280;62385;41.594;23.808;2023-01-29T13:27:25;95445.97;;;6.97;60.39
24160;BME280;62385;41.594;23.808;2023-01-29T13:29:54;95440.09;;;6.85;59.70
24160;BME280;62385;41.594;23.808;2023-01-29T13:32:26;95443.16;;;6.81;60.41
24160;BME280;62385;41.594;23.808;2023-01-29T13:34:58;95433.41;;;6.64;59.15
24160;BME280;62385;41.594;23.808;2023-01-29T13:37:37;95443.31;;;6.62;60.18
24160;BME280;62385;41.594;23.808;2023-01-29T13:40:06;95441.50;;;6.80;60.16
24160;BME280;62385;41.594;23.808;2023-01-29T13:42:44;95432.16;;;6.68;61.96
24160;BME280;62385;41.594;23.808;2023-01-29T13:45:24;95445.25;;;6.60;62.35
24160;BME280;62385;41.594;23.808;2023-01-29T13:47:52;95451.34;;;6.60;63.03
24160;BME280;62385;41.594;23.808;2023-01-29T13:50:38;95453.03;;;6.61;61.70
24160;BME280;62385;41.594;23.808;2023-01-29T13:53:06;95448.09;;;6.48;62.74
24160;BME280;62385;41.594;23.808;2023-01-29T13:55:38;95453.56;;;6.37;62.12
24160;BME280;62385;41.594;23.808;2023-01-29T14:00:53;95452.72;;;6.37;62.34
24160;BME280;62385;41.594;23.808;2023-01-29T14:13:48;95453.72;;;5.80;59.65
24160;BME280;62385;41.594;23.808;2023-01-29T14:18:55;95463.53;;;6.07;61.08
24160;BME280;62385;41.594;23.808;2023-01-29T14:21:24;95461.53;;;6.18;59.78
24160;BME280;62385;41.594;23.808;2023-01-29T14:23:56;95470.16;;;6.11;61.23
24160;BME280;62385;41.594;23.808;2023-01-29T14:31:35;95486.56;;;5.76;62.06
24160;BME280;62385;41.594;23.808;2023-01-29T14:34:03;95486.44;;;5.77;61.94
24160;BME280;62385;41.594;23.808;2023-01-29T14:36:38;95476.75;;;5.68;62.47
24160;BME280;62385;41.594;23.808;2023-01-29T14:41:52;95485.06;;;5.73;63.48
24160;BME280;62385;41.594;23.808;2023-01-29T14:49:54;95482.59;;;5.62;63.85
24160;BME280;62385;41.594;23.808;2023-01-29T14:52:25;95482.88;;;5.30;65.68
24160;BME280;62385;41.594;23.808;2023-01-29T14:54:57;95493.16;;;5.33;66.29
24160;BME280;62385;41.594;23.808;2023-01-29T14:57:24;95492.19;;;5.25;67.18
24160;BME280;62385;41.594;23.808;2023-01-29T15:00:00;95490.50;;;5.24;67.49
24160;BME280;62385;41.594;23.808;2023-01-29T15:02:39;95499.94;;;5.17;67.69
24160;BME280;62385;41.594;23.808;2023-01-29T15:05:10;95498.53;;;5.22;67.87
24160;BME280;62385;41.594;23.808;2023-01-29T15:08:18;95508.38;;;5.10;69.50
24160;BME280;62385;41.594;23.808;2023-01-29T15:10:52;95504.63;;;5.03;69.42
24160;BME280;62385;41.594;23.808;2023-01-29T15:14:36;95515.41;;;5.10;69.32
24160;BME280;62385;41.594;23.808;2023-01-29T15:19:37;95515.00;;;4.95;68.56
24160;BME280;62385;41.594;23.808;2023-01-29T15:22:17;95522.19;;;4.93;68.29
24160;BME280;62385;41.594;23.808;2023-01-29T15:24:44;95525.94;;;4.91;68.44
24160;BME280;62385;41.594;23.808;2023-01-29T15:27:14;95534.97;;;5.07;69.04
24160;BME280;62385;41.594;23.808;2023-01-29T15:29:49;95522.09;;;5.04;69.83
24160;BME280;62385;41.594;23.808;2023-01-29T15:32:38;95527.19;;;4.96;69.68
24160;BME280;62385;41.594;23.808;2023-01-29T15:35:26;95534.94;;;4.88;69.27
24160;BME280;62385;41.594;23.808;2023-01-29T15:38:15;95540.56;;;4.74;69.68
24160;BME280;62385;41.594;23.808;2023-01-29T15:40:50;95540.84;;;4.81;69.49